Time;durP1;ratioP1;P1;durP2;ratioP2;P2;SDS_P1;SDS_P2;PMS_P1;PMS_P2;Temp;Humidity;BMP_temperature;BMP_pressure;BME280_temperature;BME280_humidity;BME280_pressure;Samples;Min_cycle;Max_cycle;Signal;HPM_P1;HPM_P2
2023/10/18 00:01:37;;;;;;;2.15;1.50;;;;;;;10.43;76.87;100539.34;5081717;28;20050;-58
2023/10/18 00:04:11;;;;;;;4.43;1.42;;;;;;;10.32;76.13;100506.38;5092235;28;20522;-58
2023/10/18 00:06:41;;;;;;;5.40;1.40;;;;;;;10.61;75.34;100544.38;5080975;28;20069;-58
2023/10/18 00:11:55;;;;;;;2.92;1.48;;;;;;;10.73;73.67;100549.47;5080040;28;20126;-58
2023/10/18 00:14:26;;;;;;;5.43;1.30;;;;;;;10.80;72.11;100540.63;5082436;28;20088;-58
2023/10/18 00:17:05;;;;;;;4.38;1.50;;;;;;;10.95;71.95;100549.16;5101555;28;20048;-58
2023/10/18 00:19:38;;;;;;;4.10;1.20;;;;;;;11.06;70.08;100556.84;5099193;28;20047;-58
2023/10/18 00:22:27;;;;;;;3.28;1.48;;;;;;;11.07;70.04;100556.84;5051114;28;20199;-58
2023/10/18 00:24:58;;;;;;;4.75;1.40;;;;;;;11.15;72.85;100557.59;5052023;28;20055;-58
2023/10/18 00:27:28;;;;;;;5.53;1.38;;;;;;;11.16;72.97;100563.72;5051806;28;20060;-58
2023/10/18 00:29:59;;;;;;;9.57;1.60;;;;;;;11.21;74.14;100557.53;5052194;28;20055;-58
2023/10/18 00:32:29;;;;;;;2.55;1.10;;;;;;;11.26;70.70;100560.09;5051193;28;20037;-58
2023/10/18 00:35:02;;;;;;;1.83;1.20;;;;;;;11.35;69.78;100559.06;5043329;28;20049;-59
2023/10/18 00:37:33;;;;;;;2.72;1.40;;;;;;;11.39;69.84;100550.31;5002266;28;20132;-59
2023/10/18 00:40:09;;;;;;;2.83;1.40;;;;;;;11.40;66.41;100550.25;5012463;28;20045;-58
2023/10/18 00:42:41;;;;;;;7.22;1.70;;;;;;;11.33;66.36;100555.59;5001460;28;20057;-58
2023/10/18 00:45:12;;;;;;;5.68;1.58;;;;;;;11.38;68.55;100559.00;5002439;28;20054;-59
2023/10/18 00:47:43;;;;;;;3.60;1.80;;;;;;;11.45;67.99;100556.28;5048999;28;20135;-59
2023/10/18 00:50:18;;;;;;;4.47;1.50;;;;;;;11.44;67.10;100554.56;5054267;28;20066;-59
2023/10/18 00:52:48;;;;;;;3.03;1.20;;;;;;;11.26;65.94;100559.19;5072069;28;20051;-59
2023/10/18 00:55:19;;;;;;;4.22;1.77;;;;;;;11.01;64.60;100549.97;5060144;28;20090;-59
2023/10/18 00:57:49;;;;;;;3.30;1.48;;;;;;;10.79;65.71;100548.50;5071627;28;20552;-60
2023/10/18 01:00:24;;;;;;;4.18;1.67;;;;;;;10.61;67.21;100547.00;5062405;28;20042;-59
2023/10/18 01:02:59;;;;;;;4.88;1.90;;;;;;;10.59;68.32;100553.97;5070203;28;20066;-59
2023/10/18 01:05:32;;;;;;;6.55;2.15;;;;;;;10.64;68.82;100560.03;5072218;28;20035;-59
2023/10/18 01:08:06;;;;;;;4.32;2.17;;;;;;;10.65;66.56;100572.19;5070624;28;20048;-60
2023/10/18 01:10:37;;;;;;;6.68;1.80;;;;;;;10.66;67.15;100566.09;5043684;28;20063;-59
2023/10/18 01:13:09;;;;;;;3.00;1.50;;;;;;;10.80;68.10;100558.94;5058754;28;20340;-59
2023/10/18 01:15:43;;;;;;;4.07;1.65;;;;;;;11.07;66.91;100558.59;5071144;28;20036;-60
2023/10/18 01:18:13;;;;;;;3.67;1.77;;;;;;;11.27;66.06;100555.72;5062472;28;20043;-60
2023/10/18 01:20:46;;;;;;;5.53;2.03;;;;;;;11.37;63.64;100552.06;5076305;28;20134;-60
2023/10/18 01:23:16;;;;;;;6.72;1.85;;;;;;;11.31;67.13;100546.94;5069503;28;20136;-60
2023/10/18 01:25:48;;;;;;;6.70;2.40;;;;;;;11.18;66.40;100536.66;5080594;28;20377;-59
2023/10/18 01:28:19;;;;;;;3.35;2.00;;;;;;;11.01;66.28;100536.03;5071027;28;20036;-60
2023/10/18 01:30:49;;;;;;;6.88;2.17;;;;;;;10.85;66.44;100542.34;5075635;28;20130;-60
2023/10/18 01:33:22;;;;;;;6.55;2.72;;;;;;;10.80;65.94;100551.09;5070111;28;20047;-60
2023/10/18 01:35:53;;;;;;;7.18;2.20;;;;;;;10.88;66.83;100547.50;5074940;28;20477;-60
2023/10/18 01:38:29;;;;;;;8.05;2.20;;;;;;;10.96;66.29;100545.69;5064307;28;20134;-59
2023/10/18 01:41:08;;;;;;;5.95;2.35;;;;;;;10.86;65.92;100512.69;5077778;28;20043;-59
2023/10/18 01:43:39;;;;;;;4.53;1.70;;;;;;;10.50;65.90;100462.63;5072434;28;20450;-60
2023/10/18 01:46:13;;;;;;;6.90;2.10;;;;;;;10.99;66.75;100548.25;5078931;28;20442;-59
2023/10/18 01:48:49;;;;;;;8.20;2.20;;;;;;;10.95;66.46;100550.03;5067433;28;20526;-60
2023/10/18 01:51:21;;;;;;;6.20;2.55;;;;;;;10.89;66.59;100534.44;5072005;28;20048;-60
2023/10/18 01:53:51;;;;;;;5.07;2.15;;;;;;;11.05;66.77;100542.06;5073024;28;20526;-60
2023/10/18 01:56:24;;;;;;;3.13;1.90;;;;;;;11.36;65.27;100545.13;5067405;28;20040;-60
2023/10/18 01:58:54;;;;;;;4.13;2.20;;;;;;;11.63;63.45;100544.69;5084946;28;20057;-60
2023/10/18 02:01:24;;;;;;;4.57;2.00;;;;;;;11.90;63.75;100529.41;5070026;28;20527;-59
2023/10/18 02:03:58;;;;;;;3.17;2.25;;;;;;;12.08;63.03;100520.34;5085447;28;20062;-60
2023/10/18 02:06:29;;;;;;;3.70;2.65;;;;;;;12.25;64.93;100522.66;5064366;28;20040;-59
2023/10/18 02:08:59;;;;;;;4.88;2.33;;;;;;;12.45;65.09;100531.00;5082331;28;20097;-59
2023/10/18 02:11:37;;;;;;;5.07;2.50;;;;;;;12.72;65.12;100515.63;5064925;28;20040;-59
2023/10/18 02:14:08;;;;;;;5.07;2.20;;;;;;;12.95;64.89;100516.00;5085512;28;20377;-59
2023/10/18 02:16:39;;;;;;;5.45;2.40;;;;;;;13.04;61.68;100503.56;5077267;28;20143;-60
2023/10/18 02:19:09;;;;;;;4.22;2.22;;;;;;;13.07;63.50;100506.09;5088152;28;20058;-59
2023/10/18 02:21:41;;;;;;;3.42;2.30;;;;;;;13.11;62.18;100495.50;5075845;28;20048;-60
2023/10/18 02:24:13;;;;;;;4.95;2.33;;;;;;;13.13;61.73;100492.88;5074986;28;20052;-60
2023/10/18 02:29:35;;;;;;;6.05;2.47;;;;;;;12.87;59.20;100489.06;5067825;28;20048;-61
2023/10/18 02:32:21;;;;;;;4.55;2.13;;;;;;;12.50;59.67;100447.94;5096380;28;20044;-60
2023/10/18 02:34:54;;;;;;;5.38;2.13;;;;;;;12.83;59.73;100479.53;5068741;28;20035;-60
2023/10/18 02:37:25;;;;;;;4.78;2.20;;;;;;;12.98;60.79;100482.69;5071280;28;20044;-59
2023/10/18 02:40:07;;;;;;;4.68;2.10;;;;;;;12.98;59.08;100487.94;5080487;28;20135;-60
2023/10/18 02:42:41;;;;;;;5.07;1.95;;;;;;;12.93;60.32;100475.81;5065977;28;20080;-59
2023/10/18 02:45:17;;;;;;;7.00;2.38;;;;;;;13.10;61.47;100477.16;5074625;28;20131;-60
2023/10/18 02:47:51;;;;;;;5.97;2.10;;;;;;;13.19;60.74;100471.72;5079005;28;20429;-61
2023/10/18 02:50:22;;;;;;;8.48;2.17;;;;;;;13.11;58.99;100471.03;5066483;28;20036;-60
2023/10/18 02:52:53;;;;;;;6.68;2.00;;;;;;;13.16;61.46;100471.81;5085186;28;20451;-60
2023/10/18 02:55:26;;;;;;;3.97;2.10;;;;;;;13.27;61.03;100474.19;5078581;28;20048;-59
2023/10/18 02:57:58;;;;;;;4.32;2.00;;;;;;;13.28;60.58;100471.53;5079814;28;20381;-59
2023/10/18 03:00:34;;;;;;;6.75;2.90;;;;;;;13.33;61.94;100459.16;5069813;28;20051;-60
2023/10/18 03:03:05;;;;;;;4.88;1.85;;;;;;;13.49;62.35;100469.28;5080796;28;20142;-60
2023/10/18 03:05:42;;;;;;;6.25;2.35;;;;;;;13.65;62.81;100454.84;5071592;28;20070;-60
2023/10/18 03:08:13;;;;;;;3.87;1.80;;;;;;;13.64;60.71;100447.88;5065205;28;20050;-60
2023/10/18 03:10:47;;;;;;;6.85;1.90;;;;;;;13.67;61.17;100450.41;5099172;28;20273;-60
2023/10/18 03:13:23;;;;;;;5.32;1.92;;;;;;;13.67;60.57;100447.78;5073940;28;20067;-60
2023/10/18 03:16:18;;;;;;;4.00;2.00;;;;;;;13.48;60.25;100420.28;5078274;28;20039;-61
2023/10/18 03:18:48;;;;;;;5.37;2.03;;;;;;;13.65;61.81;100432.97;5064492;28;20036;-60
2023/10/18 03:21:23;;;;;;;5.67;1.70;;;;;;;13.75;60.58;100439.72;5096086;28;20274;-60
2023/10/18 03:23:53;;;;;;;3.70;1.87;;;;;;;13.88;62.05;100445.50;5081009;28;20590;-61
2023/10/18 03:26:34;;;;;;;5.07;1.92;;;;;;;13.92;60.86;100442.75;5071525;28;20292;-60
2023/10/18 03:29:11;;;;;;;6.43;2.50;;;;;;;14.03;61.52;100452.97;5075367;28;20134;-61
2023/10/18 03:31:43;;;;;;;8.37;2.20;;;;;;;14.08;60.50;100453.72;5078514;28;20282;-61
2023/10/18 03:34:18;;;;;;;5.30;2.27;;;;;;;14.12;60.88;100455.34;5067545;28;20588;-60
2023/10/18 03:36:52;;;;;;;5.07;2.30;;;;;;;14.16;59.91;100446.47;5078729;28;20290;-61
2023/10/18 03:39:24;;;;;;;4.33;2.00;;;;;;;13.78;59.85;100380.09;5077214;28;20731;-60
2023/10/18 03:41:58;;;;;;;4.93;1.80;;;;;;;14.20;58.93;100444.59;5096809;28;20726;-60
2023/10/18 03:44:32;;;;;;;5.50;1.93;;;;;;;14.20;58.81;100442.88;5079285;28;20373;-61
2023/10/18 03:47:11;;;;;;;6.10;2.23;;;;;;;14.23;58.68;100441.91;5072762;28;20286;-61
2023/10/18 03:49:42;;;;;;;4.45;1.70;;;;;;;14.31;59.56;100446.94;5074992;28;20339;-61
2023/10/18 03:52:19;;;;;;;5.63;1.83;;;;;;;14.30;58.67;100448.69;5080630;28;20130;-60
2023/10/18 03:55:04;;;;;;;2.07;1.47;;;;;;;14.24;58.22;100444.47;5068744;28;20331;-61
2023/10/18 03:57:39;;;;;;;4.63;1.70;;;;;;;14.34;58.28;100460.00;5067699;28;20266;-61
2023/10/18 04:02:59;;;;;;;3.67;1.80;;;;;;;14.22;57.08;100451.53;5077107;28;20277;-62
2023/10/18 04:05:39;;;;;;;3.77;1.70;;;;;;;14.11;56.56;100450.13;5074018;28;20274;-60
2023/10/18 04:08:13;;;;;;;2.40;1.57;;;;;;;14.04;57.28;100441.56;5075088;28;20653;-61
2023/10/18 04:10:44;;;;;;;2.93;1.90;;;;;;;14.05;58.02;100437.16;5065559;28;20282;-61
2023/10/18 04:13:14;;;;;;;3.73;2.10;;;;;;;14.01;58.08;100426.75;5065167;28;20266;-59
2023/10/18 04:15:49;;;;;;;4.47;2.00;;;;;;;14.04;56.71;100441.56;5073257;28;20277;-61
2023/10/18 04:18:25;;;;;;;3.57;1.77;;;;;;;13.92;57.16;100436.63;5063917;28;20707;-61
2023/10/18 04:20:59;;;;;;;3.60;2.13;;;;;;;14.00;58.49;100424.16;5079931;28;20281;-60
2023/10/18 04:23:29;;;;;;;2.60;1.67;;;;;;;14.07;59.23;100430.97;5063583;28;20274;-61
2023/10/18 04:26:00;;;;;;;4.87;2.03;;;;;;;14.10;59.23;100415.09;5080582;28;20269;-61
2023/10/18 04:28:37;;;;;;;3.23;1.90;;;;;;;14.22;59.68;100420.00;5069558;28;20286;-61
2023/10/18 04:31:11;;;;;;;2.70;1.80;;;;;;;14.32;58.88;100422.38;5079272;28;20286;-61
2023/10/18 04:33:43;;;;;;;3.47;1.93;;;;;;;14.35;56.80;100425.78;5068082;28;20774;-61
2023/10/18 04:36:15;;;;;;;4.17;2.07;;;;;;;14.30;56.75;100432.06;5063201;28;20355;-61
2023/10/18 04:38:46;;;;;;;3.90;1.90;;;;;;;14.24;57.04;100423.44;5073659;28;20631;-61
2023/10/18 04:41:27;;;;;;;4.13;1.80;;;;;;;14.29;56.97;100430.34;5071965;28;20374;-61
2023/10/18 04:44:05;;;;;;;4.90;2.10;;;;;;;14.20;55.86;100436.72;5107801;28;20280;-61
2023/10/18 04:46:37;;;;;;;5.90;2.20;;;;;;;14.12;54.62;100442.19;5068700;28;20261;-61
2023/10/18 04:49:36;;;;;;;3.33;1.90;;;;;;;14.02;55.18;100443.34;5075617;28;20281;-61
2023/10/18 04:52:08;;;;;;;5.30;1.87;;;;;;;14.06;57.27;100441.53;5082792;28;20660;-60
2023/10/18 04:54:41;;;;;;;3.10;2.10;;;;;;;14.09;57.13;100434.41;5062056;28;20274;-61
2023/10/18 04:57:11;;;;;;;7.27;2.33;;;;;;;14.10;55.68;100441.38;5075390;28;20361;-60
2023/10/18 04:59:52;;;;;;;2.53;1.60;;;;;;;14.01;54.00;100441.66;5087907;28;20282;-61
2023/10/18 05:02:26;;;;;;;4.77;1.80;;;;;;;13.85;55.56;100435.06;5067061;28;20035;-61
2023/10/18 05:04:57;;;;;;;3.37;2.20;;;;;;;13.95;57.67;100441.81;5085235;28;20323;-61
2023/10/18 05:07:41;;;;;;;3.80;2.27;;;;;;;14.07;57.36;100440.59;5068571;28;20278;-61
2023/10/18 05:10:16;;;;;;;3.63;2.10;;;;;;;14.15;56.76;100434.25;5092491;28;20289;-61
2023/10/18 05:12:53;;;;;;;3.87;2.00;;;;;;;14.07;55.17;100441.47;5087219;28;20273;-61
2023/10/18 05:15:29;;;;;;;6.73;2.40;;;;;;;14.03;56.29;100439.84;5067044;28;20613;-61
2023/10/18 05:18:06;;;;;;;4.53;2.37;;;;;;;13.91;55.33;100434.94;5076124;28;20365;-62
2023/10/18 05:20:55;;;;;;;4.77;2.10;;;;;;;13.94;56.89;100434.84;5067147;28;20270;-61
2023/10/18 05:23:26;;;;;;;5.25;2.20;;;;;;;13.92;57.96;100441.91;5073273;28;20357;-61
2023/10/18 05:26:08;;;;;;;3.87;2.43;;;;;;;13.87;57.64;100438.53;5079391;28;20040;-63
2023/10/18 05:28:49;;;;;;;3.93;2.13;;;;;;;13.75;55.82;100437.97;5074512;28;20300;-62
2023/10/18 05:34:22;;;;;;;3.00;1.70;;;;;;;13.34;57.10;100400.50;5017782;28;20773;-61
2023/10/18 05:37:13;;;;;;;2.95;1.58;;;;;;;13.48;56.67;100436.94;5073777;28;20322;-61
2023/10/18 05:42:36;;;;;;;4.23;2.37;;;;;;;13.43;58.41;100435.28;5073249;28;20258;-62
2023/10/18 05:45:10;;;;;;;3.43;1.60;;;;;;;13.33;56.68;100435.53;5080858;28;20277;-61
2023/10/18 05:47:43;;;;;;;4.67;1.97;;;;;;;13.33;58.69;100432.06;5070847;28;20617;-62
2023/10/18 05:50:17;;;;;;;6.60;1.80;;;;;;;13.31;59.94;100442.59;5077662;28;20286;-60
2023/10/18 05:52:49;;;;;;;4.13;2.10;;;;;;;13.27;60.76;100438.31;5086401;28;20270;-60
2023/10/18 05:55:19;;;;;;;3.47;1.90;;;;;;;13.26;61.48;100436.56;5084491;28;20288;-62
2023/10/18 05:57:50;;;;;;;5.77;1.90;;;;;;;13.21;61.66;100437.59;5077403;28;20315;-62
2023/10/18 06:00:20;;;;;;;4.40;1.80;;;;;;;13.11;61.00;100436.94;5069426;28;20313;-61
2023/10/18 06:02:52;;;;;;;3.38;2.00;;;;;;;12.95;59.97;100442.56;5079033;28;20361;-61
2023/10/18 06:05:24;;;;;;;6.05;1.83;;;;;;;12.84;61.42;100444.53;5085361;28;20051;-61
2023/10/18 06:07:56;;;;;;;3.30;1.60;;;;;;;12.71;58.83;100445.72;5085730;28;20093;-61
2023/10/18 06:10:27;;;;;;;2.90;1.60;;;;;;;12.47;58.88;100424.38;5082920;28;20040;-62
2023/10/18 06:13:09;;;;;;;2.53;1.60;;;;;;;12.47;58.40;100452.34;5079962;28;20036;-61
2023/10/18 06:15:44;;;;;;;5.82;2.35;;;;;;;12.41;59.19;100452.50;5068467;28;20454;-61
2023/10/18 06:18:18;;;;;;;2.63;1.90;;;;;;;12.28;58.90;100457.09;5073922;28;20142;-61
2023/10/18 06:20:52;;;;;;;2.20;1.60;;;;;;;12.23;59.10;100458.94;5088504;28;20085;-61
2023/10/18 06:23:38;;;;;;;5.40;2.00;;;;;;;12.21;58.41;100452.91;5074948;28;20369;-62
2023/10/18 06:29:02;;;;;;;2.63;1.85;;;;;;;12.06;58.02;100449.69;5064035;28;20336;-61
2023/10/18 06:31:39;;;;;;;6.60;2.20;;;;;;;11.97;57.65;100449.84;5072175;28;20112;-62
2023/10/18 06:34:15;;;;;;;4.70;1.80;;;;;;;11.95;58.52;100442.91;5079038;28;20127;-62
2023/10/18 06:36:49;;;;;;;7.20;2.50;;;;;;;11.93;59.47;100440.34;5089025;28;20378;-62
2023/10/18 06:39:28;;;;;;;3.63;1.70;;;;;;;11.94;60.58;100449.06;5073063;28;20127;-61
2023/10/18 06:41:59;;;;;;;6.13;1.92;;;;;;;11.91;60.60;100439.50;5087311;28;20059;-61
2023/10/18 06:44:30;;;;;;;5.20;1.70;;;;;;;11.95;64.65;100437.69;5071710;28;20032;-60
2023/10/18 06:47:06;;;;;;;5.65;1.90;;;;;;;11.96;66.50;100440.28;5074620;28;20123;-61
2023/10/18 06:49:36;;;;;;;5.22;1.83;;;;;;;11.68;66.67;100410.22;5069870;28;20055;-61
2023/10/18 06:52:09;;;;;;;4.88;2.13;;;;;;;11.83;67.42;100450.09;5083698;28;20135;-60
2023/10/18 06:54:40;;;;;;;4.40;1.70;;;;;;;11.72;67.04;100443.31;5069121;28;20040;-61
2023/10/18 06:57:15;;;;;;;2.45;1.98;;;;;;;11.63;67.23;100444.34;5086490;28;20058;-61
2023/10/18 06:59:48;;;;;;;7.05;2.05;;;;;;;11.54;65.68;100444.53;5087643;28;20051;-61
2023/10/18 07:02:26;;;;;;;10.80;2.25;;;;;;;11.43;65.66;100447.31;5079319;28;20105;-61
2023/10/18 07:04:58;;;;;;;5.93;2.35;;;;;;;11.35;66.23;100449.19;5078684;28;20040;-61
2023/10/18 07:07:31;;;;;;;5.07;2.83;;;;;;;11.23;66.96;100443.28;5093147;28;20075;-60
2023/10/18 07:10:05;;;;;;;8.57;2.20;;;;;;;11.15;68.46;100442.53;5083108;28;20381;-61
2023/10/18 07:12:50;;;;;;;5.07;3.05;;;;;;;11.06;68.70;100437.47;5072763;28;20040;-61
2023/10/18 07:15:22;;;;;;;5.35;3.05;;;;;;;10.94;67.90;100442.88;5070648;28;20044;-61
2023/10/18 07:17:55;;;;;;;7.07;2.80;;;;;;;10.84;67.66;100451.75;5082932;28;20127;-61
2023/10/18 07:20:32;;;;;;;5.22;2.40;;;;;;;10.73;68.35;100455.38;5069949;28;20477;-62
2023/10/18 07:23:05;;;;;;;5.65;2.50;;;;;;;10.67;69.13;100454.59;5083318;28;20058;-60
2023/10/18 07:25:37;;;;;;;5.53;2.33;;;;;;;10.61;69.55;100449.44;5066433;28;20046;-59
2023/10/18 07:28:09;;;;;;;7.43;3.05;;;;;;;10.51;69.64;100446.97;5079686;28;20039;-62
2023/10/18 07:30:44;;;;;;;9.45;3.47;;;;;;;10.44;69.87;100434.00;5072854;28;20043;-61
2023/10/18 07:33:15;;;;;;;6.68;2.97;;;;;;;10.29;70.27;100428.06;5067417;28;20032;-61
2023/10/18 07:35:45;;;;;;;9.95;3.10;;;;;;;10.28;70.77;100444.66;5081191;28;20415;-61
2023/10/18 07:38:25;;;;;;;11.02;3.20;;;;;;;10.24;70.57;100450.75;5065984;28;20526;-61
2023/10/18 07:40:59;;;;;;;5.85;2.75;;;;;;;10.18;71.03;100456.03;5077429;28;20040;-60
2023/10/18 07:43:32;;;;;;;6.53;3.03;;;;;;;10.12;71.26;100449.13;5070721;28;20048;-61
2023/10/18 07:46:09;;;;;;;6.38;2.65;;;;;;;10.08;71.43;100438.75;5075158;28;20046;-61
2023/10/18 07:48:46;;;;;;;9.38;3.10;;;;;;;10.05;71.17;100434.41;5075767;28;20047;-61
2023/10/18 07:51:26;;;;;;;10.32;2.80;;;;;;;10.05;71.08;100444.00;5064531;28;20051;-60
2023/10/18 07:53:59;;;;;;;6.63;2.33;;;;;;;10.02;71.64;100433.59;5105822;28;20066;-61
2023/10/18 07:56:32;;;;;;;3.90;2.50;;;;;;;10.02;72.41;100444.91;5069834;28;20477;-60
2023/10/18 08:01:51;;;;;;;5.38;2.53;;;;;;;9.81;72.37;100399.03;5082288;28;20043;-62
2023/10/18 08:04:21;;;;;;;6.13;2.15;;;;;;;10.03;73.11;100430.09;5064420;28;20346;-61
2023/10/18 08:06:53;;;;;;;6.10;2.95;;;;;;;10.05;73.83;100428.34;5079094;28;20108;-62
2023/10/18 08:09:30;;;;;;;6.60;2.40;;;;;;;10.10;74.21;100429.16;5080360;28;20518;-62
2023/10/18 08:12:08;;;;;;;4.90;2.38;;;;;;;10.09;74.72;100422.22;5082678;28;20036;-62
2023/10/18 08:14:38;;;;;;;7.63;2.53;;;;;;;10.13;74.40;100427.38;5063222;28;20055;-62
2023/10/18 08:17:29;;;;;;;4.95;2.65;;;;;;;10.11;74.61;100418.69;5079111;28;20045;-61
2023/10/18 08:20:18;;;;;;;5.82;2.60;;;;;;;10.14;74.71;100423.00;5089972;28;20056;-61
2023/10/18 08:22:50;;;;;;;11.18;3.53;;;;;;;10.09;75.11;100424.81;5068033;28;20504;-62
2023/10/18 08:25:29;;;;;;;8.20;3.20;;;;;;;10.14;75.29;100425.63;5063913;28;20071;-61
2023/10/18 08:28:02;;;;;;;10.13;2.67;;;;;;;10.08;75.67;100407.41;5082750;28;20055;-62
2023/10/18 08:31:03;;;;;;;6.88;3.20;;;;;;;10.22;76.04;100420.31;5070839;28;20072;-61
2023/10/18 08:33:31;;;;;;;8.60;3.10;;;;;;;10.18;76.68;100414.25;5068276;28;20145;-62
2023/10/18 08:36:07;;;;;;;9.35;2.63;;;;;;;10.26;76.90;100422.88;5086215;28;20036;-63
2023/10/18 08:38:41;;;;;;;8.52;2.63;;;;;;;10.23;77.24;100417.66;5074147;28;20044;-63
2023/10/18 08:41:16;;;;;;;8.95;3.00;;;;;;;10.35;77.33;100421.91;5080813;28;20140;-62
2023/10/18 08:44:02;;;;;;;11.18;2.53;;;;;;;10.34;77.72;100415.81;5076555;28;20078;-63
2023/10/18 08:46:37;;;;;;;8.95;2.45;;;;;;;10.35;78.23;100404.47;5069207;28;20068;-62
2023/10/18 08:49:12;;;;;;;6.53;2.92;;;;;;;10.48;78.33;100412.16;5077340;28;20074;-62
2023/10/18 08:51:46;;;;;;;5.50;2.88;;;;;;;10.43;78.45;100387.84;5071086;28;20040;-61
2023/10/18 08:54:20;;;;;;;6.00;3.10;;;;;;;10.55;78.65;100403.34;5064572;28;20127;-62
2023/10/18 08:56:53;;;;;;;7.32;2.80;;;;;;;10.60;78.82;100401.53;5073924;28;20485;-62
2023/10/18 08:59:24;;;;;;;9.65;2.78;;;;;;;10.63;78.76;100400.63;5061763;28;20466;-62
2023/10/18 09:02:12;;;;;;;13.35;2.97;;;;;;;10.62;79.21;100397.16;5090895;28;20450;-61
2023/10/18 09:04:46;;;;;;;6.68;2.85;;;;;;;10.62;79.53;100404.13;5072507;28;20042;-60
2023/10/18 09:07:21;;;;;;;8.25;3.00;;;;;;;10.42;79.59;100360.00;5068832;28;20064;-61
2023/10/18 09:09:55;;;;;;;5.15;2.58;;;;;;;10.60;79.84;100395.44;5085685;28;20383;-63
2023/10/18 09:13:08;;;;;;;7.90;2.85;;;;;;;10.63;79.75;100401.47;5071632;28;20434;-62
2023/10/18 09:15:27;;;;;;;6.72;2.60;;;;;;;10.62;80.29;100394.53;5066385;28;20060;-62
2023/10/18 09:18:04;;;;;;;6.75;2.92;;;;;;;10.62;80.35;100389.31;5081035;28;20146;-62
2023/10/18 09:20:37;;;;;;;5.93;2.35;;;;;;;10.62;80.55;100384.09;5073296;28;20340;-62
2023/10/18 09:23:16;;;;;;;9.05;2.90;;;;;;;10.63;80.76;100385.81;5080630;28;20075;-61
2023/10/18 09:25:51;;;;;;;8.63;3.25;;;;;;;10.63;80.73;100374.50;5077561;28;20324;-61
2023/10/18 09:28:25;;;;;;;6.93;2.38;;;;;;;10.62;81.01;100373.63;5078413;28;20118;-62
2023/10/18 09:31:00;;;;;;;5.78;2.67;;;;;;;10.60;81.26;100387.63;5079545;28;20139;-62
2023/10/18 09:33:32;;;;;;;6.53;2.85;;;;;;;10.61;81.59;100371.91;5064624;28;20458;-62
2023/10/18 09:36:02;;;;;;;4.88;2.33;;;;;;;10.63;81.73;100380.56;5078576;28;20086;-62
2023/10/18 09:38:41;;;;;;;8.07;2.80;;;;;;;10.63;81.96;100385.81;5074527;28;20237;-62
2023/10/18 09:41:12;;;;;;;5.68;2.72;;;;;;;10.67;82.29;100377.03;5087316;28;20358;-62
2023/10/18 09:43:46;;;;;;;5.85;2.80;;;;;;;10.59;82.01;100363.25;5084773;28;20126;-62
2023/10/18 09:46:18;;;;;;;5.90;2.60;;;;;;;10.69;82.39;100385.72;5064521;28;20048;-62
2023/10/18 09:48:48;;;;;;;6.07;2.47;;;;;;;10.74;82.47;100383.06;5080797;28;20078;-62
2023/10/18 09:51:21;;;;;;;6.50;2.40;;;;;;;10.77;82.51;100381.25;5075023;28;20366;-61
2023/10/18 09:53:52;;;;;;;6.43;2.70;;;;;;;10.82;82.60;100385.53;5080565;28;20141;-62
2023/10/18 09:56:26;;;;;;;8.55;3.10;;;;;;;10.79;82.73;100371.63;5075533;28;20047;-62
2023/10/18 09:59:06;;;;;;;9.10;2.40;;;;;;;10.86;82.93;100371.53;5077798;28;20343;-62
2023/10/18 10:01:59;;;;;;;7.93;2.63;;;;;;;10.86;82.98;100371.53;5075279;28;20074;-60
2023/10/18 10:04:34;;;;;;;6.18;2.80;;;;;;;10.88;82.99;100380.22;5071978;28;20309;-62
2023/10/18 10:10:00;;;;;;;9.52;2.65;;;;;;;10.85;83.09;100364.59;5071405;28;20044;-61
2023/10/18 10:12:31;;;;;;;6.00;2.33;;;;;;;10.91;83.53;100369.72;5074813;28;20055;-62
2023/10/18 10:15:13;;;;;;;4.28;2.63;;;;;;;10.87;83.81;100362.81;5085192;28;20036;-62
2023/10/18 10:17:56;;;;;;;8.73;2.85;;;;;;;10.86;84.09;100366.28;5073896;28;20092;-62
2023/10/18 10:20:33;;;;;;;10.80;3.45;;;;;;;10.66;84.37;100336.13;5079810;28;20055;-61
2023/10/18 10:23:14;;;;;;;6.45;2.60;;;;;;;10.85;84.61;100369.81;5084531;28;20130;-61
2023/10/18 10:26:11;;;;;;;5.28;2.30;;;;;;;10.83;85.04;100372.44;5067167;28;20032;-60
2023/10/18 10:32:04;;;;;;;4.63;2.50;;;;;;;10.77;85.81;100368.16;5098936;28;20050;-62
2023/10/18 10:34:37;;;;;;;;;;;;;;;10.77;86.21;100364.69;5070622;28;20118;-61
2023/10/18 10:37:12;;;;;;;5.68;3.10;;;;;;;10.71;86.94;100363.06;5081992;28;19916;-61
2023/10/18 10:39:49;;;;;;;6.65;2.80;;;;;;;10.74;87.43;100368.22;5072123;28;20047;-61
2023/10/18 10:42:41;;;;;;;4.03;2.70;;;;;;;10.71;88.14;100352.59;5068677;28;20040;-62
2023/10/18 10:45:23;;;;;;;5.85;3.20;;;;;;;10.69;88.78;100358.75;5076632;28;20057;-62
2023/10/18 10:47:57;;;;;;;9.40;2.80;;;;;;;10.65;88.84;100347.44;5086385;28;20046;-61
2023/10/18 10:50:45;;;;;;;7.72;2.80;;;;;;;10.61;89.32;100345.78;5065001;28;20046;-62
2023/10/18 10:53:32;;;;;;;7.72;3.08;;;;;;;10.61;90.13;100340.56;5070660;28;20035;-62
2023/10/18 10:56:16;;;;;;;6.53;2.80;;;;;;;10.53;90.56;100348.53;5080244;28;20063;-61
2023/10/18 10:58:54;;;;;;;6.63;3.40;;;;;;;10.48;91.23;100349.44;5071888;28;20056;-61
2023/10/18 11:02:06;;;;;;;7.35;2.70;;;;;;;10.46;91.79;100340.78;5078752;28;20466;-61
2023/10/18 11:04:49;;;;;;;10.25;2.80;;;;;;;10.45;92.17;100345.13;5081770;28;20052;-62
2023/10/18 11:07:23;;;;;;;9.63;3.10;;;;;;;10.47;92.48;100345.13;5067981;28;20044;-61
2023/10/18 11:10:05;;;;;;;8.38;2.70;;;;;;;10.45;92.50;100333.84;5080597;28;20052;-61
2023/10/18 11:12:36;;;;;;;7.10;2.75;;;;;;;10.53;92.83;100343.28;5083039;28;20059;-61
2023/10/18 11:15:16;;;;;;;9.13;2.67;;;;;;;10.56;92.97;100337.16;5079474;28;20035;-61
2023/10/18 11:17:48;;;;;;;9.40;2.63;;;;;;;10.44;93.03;100311.22;5070550;28;20075;-61
2023/10/18 11:20:30;;;;;;;8.52;2.42;;;;;;;10.61;93.55;100335.34;5072778;28;20048;-61
2023/10/18 11:23:00;;;;;;;6.90;2.70;;;;;;;10.65;93.36;100326.53;5080535;28;20393;-61
2023/10/18 11:25:34;;;;;;;8.80;2.70;;;;;;;10.70;93.67;100318.63;5065481;28;20045;-61
2023/10/18 11:28:20;;;;;;;9.05;2.75;;;;;;;10.71;93.52;100320.38;5077531;28;20054;-61
2023/10/18 11:30:53;;;;;;;5.93;2.20;;;;;;;10.70;93.73;100316.88;5100248;28;20056;-61
2023/10/18 11:33:46;;;;;;;15.80;2.85;;;;;;;10.04;93.93;100207.31;5078606;28;20071;-61
2023/10/18 11:36:19;;;;;;;8.45;2.58;;;;;;;10.65;94.49;100305.63;5084505;28;20044;-60
2023/10/18 11:41:37;;;;;;;6.72;2.20;;;;;;;10.67;94.92;100309.09;5068402;28;20055;-62
2023/10/18 11:44:13;;;;;;;9.77;2.53;;;;;;;10.65;95.26;100303.03;5078087;28;20040;-61
2023/10/18 11:46:49;;;;;;;9.60;2.47;;;;;;;10.68;95.56;100300.34;5067537;28;20071;-61
2023/10/18 11:49:20;;;;;;;9.93;2.78;;;;;;;10.68;95.83;100284.69;5071590;28;20353;-61
2023/10/18 11:51:54;;;;;;;6.72;2.50;;;;;;;10.63;96.12;100283.91;5083089;28;20369;-61
2023/10/18 11:54:32;;;;;;;8.82;2.60;;;;;;;10.69;96.13;100286.44;5103992;28;20385;-61
2023/10/18 11:57:05;;;;;;;8.18;2.70;;;;;;;10.67;96.27;100293.41;5091710;28;20122;-61
2023/10/18 11:59:54;;;;;;;7.75;2.42;;;;;;;10.65;96.33;100287.34;5062016;28;20058;-61
2023/10/18 12:02:28;;;;;;;5.10;2.10;;;;;;;10.61;96.63;100285.69;5068711;28;20127;-62
2023/10/18 12:04:58;;;;;;;4.78;2.30;;;;;;;10.56;96.76;100279.69;5082925;28;20071;-62
2023/10/18 12:07:32;;;;;;;7.30;2.17;;;;;;;10.52;97.20;100283.22;5071758;28;20568;-62
2023/10/18 12:10:15;;;;;;;10.35;2.58;;;;;;;10.48;97.58;100287.63;5077641;28;20071;-61
2023/10/18 12:12:49;;;;;;;13.88;3.83;;;;;;;10.31;97.34;100285.28;5067423;28;20043;-61
2023/10/18 12:15:19;;;;;;;9.27;3.20;;;;;;;10.20;97.52;100284.53;5079502;28;20143;-62
2023/10/18 12:17:50;;;;;;;9.02;2.75;;;;;;;10.08;98.63;100275.16;5079483;28;20143;-61
2023/10/18 12:20:25;;;;;;;12.98;2.70;;;;;;;10.12;99.01;100289.00;5067986;28;20052;-61
2023/10/18 12:22:57;;;;;;;12.48;3.25;;;;;;;10.06;99.43;100279.53;5080999;28;20040;-61
2023/10/18 12:25:28;;;;;;;12.10;2.88;;;;;;;10.04;100.00;100277.81;5067395;28;20052;-61
2023/10/18 12:28:00;;;;;;;14.13;3.25;;;;;;;10.08;100.00;100263.81;5085095;28;20109;-62
2023/10/18 12:30:38;;;;;;;11.77;3.38;;;;;;;10.12;100.00;100262.91;5076883;28;20043;-61